Terminal Aerodrome Forecast
Issued by NWS

Home | Current Version | Previous Version | Text Only | Print | Product List | Glossary On
Versions: 1 2 3 4 5 6 7 8 9 10 11
930
FTUS45 KPIH 090523
TAFSUN
TAF
KSUN 090523Z 0906/1006 32011KT P6SM SKC
     FM091800 VRB05KT P6SM FEW140
     FM100300 32011KT P6SM SKC
      AMD LTD TO CLD VIS AND WIND TIL 091400=

USA.gov is the U.S. government's official web portal to all federal, state and local government web resources and services.